Time;durP1;ratioP1;P1;durP2;ratioP2;P2;SDS_P1;SDS_P2;PMS_P1;PMS_P2;Temp;Humidity;BMP_temperature;BMP_pressure;BME280_temperature;BME280_humidity;BME280_pressure;Samples;Min_cycle;Max_cycle;Signal;HPM_P1;HPM_P2
2023/03/16 00:02:17;;;;;;;;;;;;;;;;;;;;;
2023/03/16 00:25:42;;;;;;;;;;;;;;;;;;;;;
2023/03/16 00:42:58;;;;;;;5.75;2.70;;;5.00;1.00;;;;;;4963072;28;20276;-83
2023/03/16 00:59:45;;;;;;;;;;;;;;;;;;;;;
2023/03/16 01:03:07;;;;;;;;;;;;;;;;;;;;;
2023/03/16 01:23:53;;;;;;;4.78;3.47;;;4.70;1.00;;;;;;5055175;28;20241;-82
2023/03/16 01:30:43;;;;;;;3.30;3.00;;;4.70;1.00;;;;;;5057558;28;20223;-83
2023/03/16 01:37:43;;;;;;;4.45;3.22;;;4.70;1.00;;;;;;5001917;28;20194;-85
2023/03/16 02:05:28;;;;;;;;;;;;;;;;;;;;;
2023/03/16 02:32:30;;;;;;;4.20;3.25;;;4.40;99.90;;;;;;4938104;29;20237;-83
2023/03/16 02:49:21;;;;;;;4.65;3.47;;;4.50;99.90;;;;;;4907933;28;20725;-82
2023/03/16 02:52:16;;;;;;;3.10;2.67;;;4.60;99.90;;;;;;5063124;28;20220;-85
2023/03/16 03:41:00;;;;;;;39.38;14.45;;;4.80;99.90;;;;;;5020008;28;20744;-83
2023/03/16 03:47:12;;;;;;;60.50;24.10;;;4.80;99.90;;;;;;5041539;28;20215;-83
2023/03/16 04:03:56;;;;;;;;;;;;;;;;;;;;;
2023/03/16 04:14:18;;;;;;;;;;;;;;;;;;;;;
2023/03/16 04:21:37;;;;;;;;;;;;;;;;;;;;;
2023/03/16 04:24:52;;;;;;;;;;;;;;;;;;;;;
2023/03/16 04:48:31;;;;;;;;;;;;;;;;;;;;;
2023/03/16 05:06:04;;;;;;;5.18;4.50;;;4.80;99.90;;;;;;5012961;28;20202;-86
2023/03/16 05:09:19;;;;;;;5.68;4.20;;;4.80;99.90;;;;;;5051894;28;21878;-83
2023/03/16 05:26:34;;;;;;;;;;;;;;;;;;;;;
2023/03/16 05:33:37;;;;;;;;;;;;;;;;;;;;;
2023/03/16 05:54:14;;;;;;;4.38;3.55;;;4.90;1.00;;;;;;4980010;28;20192;-83
2023/03/16 06:11:39;;;;;;;;;;;;;;;;;;;;;
2023/03/16 06:29:18;;;;;;;5.30;3.80;;;5.20;99.90;;;;;;5006918;28;21943;-81
2023/03/16 07:11:24;;;;;;;4.70;3.80;;;6.70;1.00;;;;;;4999514;28;20296;-81
2023/03/16 07:36:53;;;;;;;;;;;;;;;;;;;;;
2023/03/16 07:40:03;;;;;;;5.75;3.47;;;7.60;1.00;;;;;;4986200;28;20275;-82
2023/03/16 07:46:06;;;;;;;;;;;;;;;;;;;;;
2023/03/16 07:52:29;;;;;;;6.47;4.55;;;7.70;1.00;;;;;;5005372;28;20264;-82
2023/03/16 08:02:18;;;;;;;7.65;4.28;;;7.70;1.00;;;;;;5003785;28;20226;-82
2023/03/16 08:05:20;;;;;;;;;;;;;;;;;;;;;
2023/03/16 08:19:16;;;;;;;;;;;;;;;;;;;;;
2023/03/16 08:26:32;;;;;;;;;;;;;;;;;;;;;
2023/03/16 08:36:42;;;;;;;5.72;4.68;;;8.10;1.00;;;;;;4991020;28;20284;-79
2023/03/16 08:40:00;;;;;;;;;;;;;;;;;;;;;
2023/03/16 09:26:38;;;;;;;;;;;;;;;;;;;;;
2023/03/16 09:29:58;;;;;;;;;;;;;;;;;;;;;
2023/03/16 09:32:37;;;;;;;;;;;;;;;;;;;;;
2023/03/16 09:39:02;;;;;;;6.27;3.37;;;10.10;99.90;;;;;;5033236;28;20528;-82
2023/03/16 09:48:24;;;;;;;6.20;3.37;;;10.40;99.90;;;;;;5013795;28;20440;-82
2023/03/16 09:57:58;;;;;;;5.30;3.17;;;12.00;99.90;;;;;;5039792;28;20446;-83
2023/03/16 10:11:30;;;;;;;;;;;;;;;;;;;;;
2023/03/16 10:17:48;;;;;;;5.90;3.63;;;16.00;99.90;;;;;;5054397;28;20441;-81
2023/03/16 10:26:55;;;;;;;3.70;2.57;;;17.50;99.90;;;;;;5046303;28;20531;-83
2023/03/16 10:29:20;;;;;;;3.80;2.70;;;18.40;99.90;;;;;;5062410;28;20459;-82
2023/03/16 10:49:12;;;;;;;5.30;3.10;;;24.70;99.90;;;;;;5023989;28;21091;-84
2023/03/16 10:55:41;;;;;;;4.20;2.80;;;24.70;99.90;;;;;;5059790;28;20440;-84
2023/03/16 11:05:28;;;;;;;;;;;;;;;;;;;;;
2023/03/16 11:08:12;;;;;;;4.70;2.90;;;26.30;99.90;;;;;;5057791;28;20503;-80
2023/03/16 11:10:46;;;;;;;3.17;2.60;;;25.20;99.90;;;;;;5056891;28;20527;-81
2023/03/16 11:13:20;;;;;;;9.43;2.83;;;24.50;99.90;;;;;;5060546;28;20464;-81
2023/03/16 11:16:04;;;;;;;4.37;2.77;;;23.90;99.90;;;;;;5063734;28;20451;-82
2023/03/16 11:18:49;;;;;;;3.83;2.33;;;23.50;99.90;;;;;;5058171;28;20420;-79
2023/03/16 11:21:49;;;;;;;5.03;3.33;;;23.70;99.90;;;;;;5054882;28;20604;-83
2023/03/16 11:25:08;;;;;;;;;;;;;;;;;;;;;
2023/03/16 11:27:56;;;;;;;5.30;2.53;;;23.80;99.90;;;;;;5052272;28;20527;-81
2023/03/16 11:37:22;;;;;;;;;;;;;;;;;;;;;
2023/03/16 11:40:11;;;;;;;2.40;1.83;;;24.70;99.90;;;;;;5055874;28;20516;-81
2023/03/16 11:42:40;;;;;;;4.13;1.80;;;24.90;99.90;;;;;;5056084;28;20443;-81
2023/03/16 11:45:27;;;;;;;5.00;1.70;;;24.90;99.90;;;;;;5053962;28;20551;-82
2023/03/16 11:48:30;;;;;;;4.67;2.10;;;24.90;99.90;;;;;;5047242;28;20428;-85
2023/03/16 11:51:35;;;;;;;3.23;1.23;;;25.20;99.90;;;;;;5060710;28;20447;-82
2023/03/16 11:54:27;;;;;;;2.97;1.70;;;25.30;99.90;;;;;;5052708;28;20949;-82
2023/03/16 11:57:18;;;;;;;5.70;1.90;;;24.70;99.90;;;;;;5058204;28;20467;-85
2023/03/16 12:00:15;;;;;;;2.57;1.47;;;23.60;99.90;;;;;;5041546;28;20443;-81
2023/03/16 12:02:47;;;;;;;3.97;2.00;;;23.50;99.90;;;;;;5044620;28;20447;-81
2023/03/16 12:06:11;;;;;;;7.37;1.70;;;23.70;99.90;;;;;;5061096;28;20526;-81
2023/03/16 12:08:54;;;;;;;3.27;1.73;;;22.80;99.90;;;;;;5009258;28;20824;-80
2023/03/16 12:11:37;;;;;;;3.27;1.90;;;22.30;99.90;;;;;;5054412;28;20477;-81
2023/03/16 12:14:16;;;;;;;2.80;1.33;;;21.90;99.90;;;;;;5057507;28;20448;-81
2023/03/16 12:16:53;;;;;;;2.33;1.40;;;21.50;99.90;;;;;;5051868;28;20455;-83
2023/03/16 12:19:29;;;;;;;3.60;1.60;;;21.60;99.90;;;;;;5063399;28;20446;-83
2023/03/16 12:22:14;;;;;;;3.77;1.53;;;21.60;99.90;;;;;;5060193;28;20530;-82
2023/03/16 12:24:42;;;;;;;3.00;1.80;;;21.30;99.90;;;;;;5037540;28;20504;-82
2023/03/16 12:27:19;;;;;;;4.30;1.40;;;21.10;99.90;;;;;;5045331;28;20489;-81
2023/03/16 12:29:55;;;;;;;2.93;1.70;;;21.00;99.90;;;;;;5044315;28;20435;-83
2023/03/16 12:32:37;;;;;;;2.77;1.47;;;20.80;99.90;;;;;;5057641;28;20470;-81
2023/03/16 12:35:18;;;;;;;4.50;3.17;;;20.40;99.90;;;;;;5054920;28;20448;-83
2023/03/16 12:38:19;;;;;;;2.80;1.80;;;20.20;99.90;;;;;;5039893;28;20513;-81
2023/03/16 12:41:00;;;;;;;2.70;1.77;;;19.70;99.90;;;;;;5057570;28;20491;-83
2023/03/16 12:44:01;;;;;;;6.87;2.33;;;19.20;99.90;;;;;;5058978;28;20443;-82
2023/03/16 12:46:35;;;;;;;3.07;1.40;;;19.10;99.90;;;;;;5054363;28;20557;-82
2023/03/16 12:49:04;;;;;;;6.43;3.60;;;18.80;99.90;;;;;;5061745;28;20439;-81
2023/03/16 12:51:34;;;;;;;5.90;4.50;;;18.70;99.90;;;;;;5031843;28;20459;-82
2023/03/16 12:54:01;;;;;;;4.63;2.40;;;18.80;99.90;;;;;;5051484;28;20452;-83
2023/03/16 12:56:32;;;;;;;4.70;1.60;;;18.90;99.90;;;;;;5060595;28;20439;-82
2023/03/16 12:59:00;;;;;;;4.27;2.53;;;18.90;99.90;;;;;;5055202;28;20443;-82
2023/03/16 13:01:40;;;;;;;5.73;2.80;;;19.00;99.90;;;;;;5060787;28;20470;-84
2023/03/16 13:04:18;;;;;;;2.87;1.63;;;19.30;99.90;;;;;;5047991;28;20459;-82
2023/03/16 13:06:50;;;;;;;9.57;1.87;;;19.60;99.90;;;;;;5042852;28;20808;-82
2023/03/16 13:10:06;;;;;;;4.60;2.90;;;19.70;99.90;;;;;;5053316;28;20439;-82
2023/03/16 13:22:48;;;;;;;2.30;1.70;;;21.60;99.90;;;;;;5043408;28;20453;-83
2023/03/16 13:39:01;;;;;;;;;;;;;;;;;;;;;
2023/03/16 13:45:12;;;;;;;2.53;1.30;;;20.90;99.90;;;;;;5042083;28;20474;-80
2023/03/16 13:47:45;;;;;;;5.10;1.60;;;20.20;99.90;;;;;;5047101;28;20492;-80
2023/03/16 13:50:13;;;;;;;1.83;1.03;;;19.70;99.90;;;;;;5054684;28;20436;-81
2023/03/16 13:52:42;;;;;;;4.60;1.20;;;19.40;99.90;;;;;;5053660;28;20446;-81
2023/03/16 13:55:24;;;;;;;5.57;1.80;;;19.10;99.90;;;;;;5056152;28;20445;-79
2023/03/16 13:57:53;;;;;;;4.60;1.20;;;18.90;99.90;;;;;;5035090;28;20514;-79
2023/03/16 14:00:25;;;;;;;2.20;1.20;;;18.70;99.90;;;;;;5054730;28;20536;-83
2023/03/16 14:05:46;;;;;;;5.63;1.63;;;18.10;99.90;;;;;;5044070;28;20481;-82
2023/03/16 14:09:00;;;;;;;2.60;1.30;;;17.90;99.90;;;;;;5062462;28;20546;-82
2023/03/16 14:11:48;;;;;;;2.33;1.13;;;18.00;99.90;;;;;;5058991;28;20484;-82
2023/03/16 14:14:42;;;;;;;;;;;;;;;;;;;;;
2023/03/16 14:17:15;;;;;;;3.67;1.43;;;18.50;99.90;;;;;;5052040;28;20499;-83
2023/03/16 14:19:47;;;;;;;3.37;1.03;;;18.70;99.90;;;;;;5046552;28;20469;-83
2023/03/16 14:22:26;;;;;;;;;;;;;;;;;;;;;
2023/03/16 14:25:16;;;;;;;4.60;1.10;;;19.10;99.90;;;;;;5068483;28;21050;-82
2023/03/16 14:31:30;;;;;;;3.27;1.40;;;19.40;99.90;;;;;;5052953;28;20447;-82
2023/03/16 14:34:12;;;;;;;;;;;;;;;;;;;;;
2023/03/16 14:36:40;;;;;;;1.77;1.27;;;19.20;99.90;;;;;;5050388;28;20535;-83
2023/03/16 14:39:27;;;;;;;2.90;1.17;;;19.00;99.90;;;;;;5059691;28;20432;-81
2023/03/16 14:41:53;;;;;;;3.20;1.30;;;19.20;99.90;;;;;;5045041;28;20479;-83
2023/03/16 14:44:23;;;;;;;2.00;1.10;;;19.10;99.90;;;;;;5063603;28;21000;-82
2023/03/16 14:46:49;;;;;;;2.67;1.33;;;19.00;99.90;;;;;;5062244;28;20197;-82
2023/03/16 14:49:26;;;;;;;2.83;1.30;;;18.90;99.90;;;;;;5037806;28;20443;-81
2023/03/16 14:51:57;;;;;;;4.60;1.63;;;18.80;99.90;;;;;;5054027;28;20475;-82
2023/03/16 14:54:23;;;;;;;2.20;1.43;;;18.70;99.90;;;;;;5027513;28;20808;-82
2023/03/16 14:56:51;;;;;;;2.27;1.20;;;18.60;99.90;;;;;;5054795;28;20452;-84
2023/03/16 14:59:17;;;;;;;1.40;0.80;;;18.40;99.90;;;;;;5044711;28;20439;-82
2023/03/16 15:01:44;;;;;;;1.70;1.20;;;18.30;99.90;;;;;;5057623;28;20512;-82
2023/03/16 15:04:14;;;;;;;3.40;1.20;;;18.20;99.90;;;;;;5055722;28;20502;-82
2023/03/16 15:06:42;;;;;;;3.67;1.30;;;18.00;99.90;;;;;;5061281;28;20429;-82
2023/03/16 15:09:30;;;;;;;4.10;1.20;;;18.00;99.90;;;;;;5061428;28;20450;-82
2023/03/16 15:11:56;;;;;;;5.10;1.53;;;17.90;99.90;;;;;;5047207;28;20448;-80
2023/03/16 15:17:09;;;;;;;3.47;1.17;;;17.70;99.90;;;;;;5064383;28;20446;-83
2023/03/16 15:19:35;;;;;;;4.00;1.10;;;17.60;99.90;;;;;;5067297;28;20475;-83
2023/03/16 15:22:02;;;;;;;4.07;1.30;;;17.50;99.90;;;;;;5061927;28;20458;-83
2023/03/16 15:24:30;;;;;;;1.47;0.90;;;17.30;99.90;;;;;;5058883;28;20217;-82
2023/03/16 15:26:55;;;;;;;3.43;1.40;;;17.10;99.90;;;;;;5044695;28;20499;-82
2023/03/16 15:29:21;;;;;;;4.50;1.43;;;16.90;99.90;;;;;;5053581;28;20512;-81
2023/03/16 15:31:47;;;;;;;2.47;1.57;;;16.70;99.90;;;;;;5039794;28;20553;-82
2023/03/16 15:34:12;;;;;;;2.03;1.53;;;16.60;99.90;;;;;;5038677;28;20459;-83
2023/03/16 15:36:38;;;;;;;3.87;1.20;;;16.60;99.90;;;;;;5064774;28;20268;-82
2023/03/16 15:39:04;;;;;;;3.17;1.10;;;16.50;99.90;;;;;;5033897;28;20216;-82
2023/03/16 15:41:30;;;;;;;5.93;1.40;;;16.40;99.90;;;;;;5055139;28;20252;-83
2023/03/16 15:43:59;;;;;;;5.87;1.43;;;16.30;99.90;;;;;;5054919;28;20885;-83
2023/03/16 15:46:26;;;;;;;2.63;1.57;;;16.10;99.90;;;;;;5062276;28;20441;-83
2023/03/16 15:48:52;;;;;;;2.90;1.40;;;15.90;99.90;;;;;;5058311;28;20444;-83
2023/03/16 15:51:24;;;;;;;3.97;2.03;;;15.80;99.90;;;;;;5059887;28;20458;-83
2023/03/16 15:53:53;;;;;;;4.00;2.07;;;15.70;99.90;;;;;;5041451;28;20173;-83
2023/03/16 15:56:25;;;;;;;3.13;2.03;;;15.60;99.90;;;;;;5053585;28;20436;-83
2023/03/16 15:58:51;;;;;;;7.03;4.97;;;15.60;99.90;;;;;;5057824;28;21194;-83
2023/03/16 16:01:25;;;;;;;3.83;3.17;;;15.50;99.90;;;;;;5045149;28;20483;-82
2023/03/16 16:03:52;;;;;;;3.30;3.00;;;15.40;99.90;;;;;;5057340;28;20504;-81
2023/03/16 16:06:19;;;;;;;3.43;2.57;;;15.40;99.90;;;;;;5039348;28;21124;-83
2023/03/16 16:08:45;;;;;;;5.03;3.83;;;15.40;99.90;;;;;;5047612;28;20552;-82
2023/03/16 16:11:22;;;;;;;6.70;2.10;;;15.30;99.90;;;;;;5060470;28;20459;-82
2023/03/16 16:13:48;;;;;;;3.10;1.77;;;15.20;99.90;;;;;;5057124;28;20527;-82
2023/03/16 16:16:15;;;;;;;12.53;2.20;;;15.10;99.90;;;;;;5054810;28;20447;-83
2023/03/16 16:18:41;;;;;;;3.80;2.00;;;15.10;99.90;;;;;;5058116;28;20185;-82
2023/03/16 16:21:12;;;;;;;4.83;2.23;;;15.00;99.90;;;;;;5047579;28;20516;-82
2023/03/16 16:23:40;;;;;;;4.27;2.20;;;14.90;99.90;;;;;;5059245;28;20511;-81
2023/03/16 16:26:17;;;;;;;6.00;3.33;;;14.80;99.90;;;;;;5057827;28;20478;-83
2023/03/16 16:28:43;;;;;;;3.23;2.37;;;14.80;99.90;;;;;;5039631;28;20442;-81
2023/03/16 16:31:15;;;;;;;4.70;3.10;;;14.90;99.90;;;;;;5039164;28;21129;-82
2023/03/16 16:33:41;;;;;;;7.17;4.07;;;14.90;99.90;;;;;;5051624;28;20200;-84
2023/03/16 16:36:21;;;;;;;7.07;2.47;;;14.90;99.90;;;;;;5053621;28;20430;-82
2023/03/16 16:38:50;;;;;;;7.57;3.10;;;14.90;99.90;;;;;;5043237;28;20560;-82
2023/03/16 16:41:28;;;;;;;3.90;2.67;;;14.80;99.90;;;;;;5056163;28;20467;-82
2023/03/16 16:43:55;;;;;;;6.50;3.00;;;14.80;99.90;;;;;;5051925;28;20936;-83
2023/03/16 16:46:27;;;;;;;6.20;4.33;;;14.70;99.90;;;;;;5055429;28;20546;-83
2023/03/16 16:49:03;;;;;;;4.77;2.20;;;14.80;99.90;;;;;;5050891;28;20434;-83
2023/03/16 16:51:29;;;;;;;3.93;3.23;;;14.70;99.90;;;;;;5049767;28;20462;-81
2023/03/16 16:53:57;;;;;;;5.13;2.27;;;14.70;99.90;;;;;;5048511;28;20505;-83
2023/03/16 16:56:31;;;;;;;4.20;2.57;;;14.60;99.90;;;;;;5035995;28;20187;-83
2023/03/16 16:59:06;;;;;;;5.47;3.73;;;14.60;99.90;;;;;;5056454;28;20429;-84
2023/03/16 17:01:33;;;;;;;51.07;24.00;;;14.50;99.90;;;;;;5054876;28;20461;-82
2023/03/16 17:04:02;;;;;;;12.43;6.10;;;14.40;99.90;;;;;;5059108;28;20465;-84
2023/03/16 17:06:30;;;;;;;6.10;4.20;;;14.30;99.90;;;;;;5057307;28;20600;-82
2023/03/16 17:08:58;;;;;;;2.37;1.30;;;14.20;99.90;;;;;;5050132;28;20464;-82
2023/03/16 17:11:28;;;;;;;3.80;1.73;;;14.20;99.90;;;;;;5034838;28;20467;-83
2023/03/16 17:13:56;;;;;;;2.97;1.97;;;14.10;99.90;;;;;;5049972;28;20437;-83
2023/03/16 17:16:24;;;;;;;3.80;1.80;;;13.90;99.90;;;;;;5041784;28;20460;-83
2023/03/16 17:18:50;;;;;;;3.13;2.77;;;13.80;99.90;;;;;;5050756;28;20558;-82
2023/03/16 17:21:18;;;;;;;1.77;1.10;;;13.70;99.90;;;;;;5054640;28;20447;-81
2023/03/16 17:23:45;;;;;;;3.20;1.30;;;13.60;99.90;;;;;;5056138;28;20193;-81
2023/03/16 17:26:24;;;;;;;4.70;1.37;;;13.50;99.90;;;;;;5046801;28;20440;-82
2023/03/16 17:28:52;;;;;;;2.67;1.20;;;13.40;99.90;;;;;;5054515;28;20441;-84
2023/03/16 17:31:24;;;;;;;5.60;2.50;;;13.30;99.90;;;;;;5055521;28;20452;-82
2023/03/16 17:33:51;;;;;;;5.90;1.23;;;13.20;99.90;;;;;;5032459;28;20456;-83
2023/03/16 17:36:17;;;;;;;5.17;1.40;;;13.10;99.90;;;;;;5052814;28;20475;-82
2023/03/16 17:38:43;;;;;;;3.00;1.23;;;13.00;99.90;;;;;;5051494;28;20432;-82
2023/03/16 17:41:24;;;;;;;2.80;1.40;;;12.90;99.90;;;;;;5051757;28;20838;-82
2023/03/16 17:43:55;;;;;;;2.63;1.20;;;12.90;99.90;;;;;;5054869;28;20432;-83
2023/03/16 17:46:29;;;;;;;2.13;1.20;;;12.80;99.90;;;;;;5047914;28;20489;-81
2023/03/16 17:48:55;;;;;;;3.23;1.33;;;12.70;99.90;;;;;;5052014;28;20439;-81
2023/03/16 17:51:24;;;;;;;3.50;1.27;;;12.60;99.90;;;;;;5049870;28;20487;-82
2023/03/16 17:53:50;;;;;;;1.77;1.13;;;12.60;99.90;;;;;;5049889;28;20428;-81
2023/03/16 17:56:24;;;;;;;2.50;1.60;;;12.50;99.90;;;;;;5051720;28;20478;-80
2023/03/16 17:58:57;;;;;;;3.03;2.23;;;12.40;99.90;;;;;;5037728;28;20435;-80
2023/03/16 18:01:32;;;;;;;3.77;2.27;;;12.40;99.90;;;;;;5040162;28;20475;-81
2023/03/16 18:04:36;;;;;;;16.13;8.83;;;12.30;99.90;;;;;;5060837;28;20497;-82
2023/03/16 18:07:42;;;;;;;;;;;;;;;;;;;;;
2023/03/16 18:14:08;;;;;;;9.57;4.80;;;12.10;99.90;;;;;;5059987;28;20432;-83
2023/03/16 18:48:36;;;;;;;;;;;;;;;;;;;;;
2023/03/16 19:54:08;;;;;;;;;;;;;;;;;;;;;
2023/03/16 20:00:25;;;;;;;3.73;3.00;;;9.80;99.90;;;;;;5043154;28;20469;-82
2023/03/16 20:07:06;;;;;;;;;;;;;;;;;;;;;
2023/03/16 20:27:14;;;;;;;8.83;3.33;;;9.50;99.90;;;;;;5009266;28;20263;-83
2023/03/16 21:01:37;;;;;;;;;;;;;;;;;;;;;
2023/03/16 21:19:33;;;;;;;;;;;;;;;;;;;;;
